createdAt,value
2019-01-03T00:01:49.727Z,4.70
2019-01-03T00:04:19.860Z,5.60
2019-01-03T00:06:49.904Z,6.47
2019-01-03T00:09:25.716Z,5.07
2019-01-03T00:12:01.756Z,5.53
2019-01-03T00:14:43.553Z,5.43
2019-01-03T00:17:29.380Z,9.07
2019-01-03T00:20:02.337Z,7.73
2019-01-03T00:22:48.787Z,6.67
2019-01-03T00:25:30.689Z,7.27
2019-01-03T00:28:15.879Z,3.10
2019-01-03T00:31:01.968Z,5.30
2019-01-03T00:33:40.765Z,6.03
2019-01-03T00:36:10.824Z,7.00
2019-01-03T00:38:43.407Z,6.00
2019-01-03T00:41:16.128Z,4.30
2019-01-03T00:43:52.156Z,4.97
2019-01-03T00:46:22.217Z,3.97
2019-01-03T00:48:55.002Z,4.83
2019-01-03T00:51:41.169Z,4.43
2019-01-03T00:54:23.053Z,5.20
2019-01-03T00:56:59.159Z,3.13
2019-01-03T00:59:32.231Z,5.43
2019-01-03T01:02:14.087Z,6.30
2019-01-03T01:04:52.747Z,6.00
2019-01-03T01:07:31.772Z,5.00
2019-01-03T01:10:04.740Z,7.00
2019-01-03T01:12:34.797Z,5.20
2019-01-03T01:15:07.951Z,4.83
2019-01-03T01:17:40.950Z,6.33
2019-01-03T01:20:27.124Z,5.30
2019-01-03T01:23:03.293Z,6.57
2019-01-03T01:25:49.476Z,4.87
2019-01-03T01:28:21.938Z,5.80
2019-01-03T01:30:54.905Z,4.37
2019-01-03T01:33:40.945Z,5.77
2019-01-03T01:36:13.953Z,3.33
2019-01-03T01:38:44.013Z,7.77
2019-01-03T01:41:20.068Z,4.07
2019-01-03T01:43:52.786Z,3.77
2019-01-03T01:46:34.668Z,4.93
2019-01-03T01:49:13.453Z,8.13
2019-01-03T01:51:43.505Z,5.53
2019-01-03T01:54:22.570Z,4.00
2019-01-03T01:57:04.324Z,4.87
2019-01-03T01:59:43.441Z,5.67
2019-01-03T02:02:16.450Z,7.30
2019-01-03T02:04:58.640Z,6.60
2019-01-03T02:07:37.292Z,6.00
2019-01-03T02:10:19.676Z,6.23
2019-01-03T02:12:55.455Z,6.63
2019-01-03T02:15:25.516Z,7.90
2019-01-03T02:18:01.344Z,3.63
2019-01-03T02:20:31.400Z,5.63
2019-01-03T02:23:01.451Z,5.97
2019-01-03T02:25:49.591Z,7.33
2019-01-03T02:28:35.691Z,4.40
2019-01-03T02:31:08.293Z,6.33
2019-01-03T02:33:38.352Z,5.70
2019-01-03T02:36:24.388Z,4.13
2019-01-03T02:38:54.428Z,5.70
2019-01-03T02:41:33.461Z,4.23
2019-01-03T02:44:03.510Z,4.63
2019-01-03T02:46:42.660Z,8.00
2019-01-03T02:49:12.714Z,6.10
2019-01-03T02:51:58.789Z,5.23
2019-01-03T02:54:44.861Z,6.47
2019-01-03T02:57:23.885Z,7.60
2019-01-03T03:00:05.657Z,3.77
2019-01-03T03:02:50.523Z,5.97
2019-01-03T03:05:35.614Z,3.93
2019-01-03T03:08:05.728Z,6.40
2019-01-03T03:10:41.480Z,6.57
2019-01-03T03:13:14.282Z,5.13
2019-01-03T03:16:02.225Z,5.17
2019-01-03T03:18:41.384Z,9.20
2019-01-03T03:21:11.436Z,4.80
2019-01-03T03:23:44.438Z,5.43
2019-01-03T03:26:20.472Z,8.00
2019-01-03T03:28:55.946Z,4.83
2019-01-03T03:31:28.563Z,5.73
2019-01-03T03:34:16.667Z,6.67
2019-01-03T03:36:58.607Z,4.30
2019-01-03T03:39:46.301Z,5.97
2019-01-03T03:42:16.342Z,7.37
2019-01-03T03:44:52.212Z,5.03
2019-01-03T03:47:27.696Z,5.50
2019-01-03T03:50:06.789Z,5.47
2019-01-03T03:52:43.936Z,3.63
2019-01-03T03:55:25.818Z,7.90
2019-01-03T03:58:04.852Z,6.70
2019-01-03T04:00:46.641Z,5.83
2019-01-03T04:03:16.691Z,7.30
2019-01-03T04:05:49.648Z,5.27
2019-01-03T04:08:35.760Z,5.60
2019-01-03T04:11:11.605Z,5.03
2019-01-03T04:13:57.614Z,5.07
2019-01-03T04:16:33.387Z,5.17
2019-01-03T04:19:03.469Z,8.67
2019-01-03T04:21:45.377Z,7.47
2019-01-03T04:24:27.394Z,5.67
2019-01-03T04:27:03.162Z,5.30
2019-01-03T04:29:36.136Z,7.30
2019-01-03T04:32:24.000Z,6.67
2019-01-03T04:34:56.610Z,5.63
2019-01-03T04:37:29.250Z,6.20
2019-01-03T04:40:05.033Z,4.47
2019-01-03T04:42:35.084Z,5.87
2019-01-03T04:45:05.136Z,7.23
2019-01-03T04:47:35.186Z,3.93
2019-01-03T04:50:22.098Z,5.53
2019-01-03T04:53:08.204Z,6.87
2019-01-03T04:55:54.496Z,6.27
2019-01-03T04:58:36.605Z,5.20
2019-01-03T05:01:37.801Z,5.03
2019-01-03T05:04:19.579Z,3.87
2019-01-03T05:07:05.906Z,5.20
2019-01-03T05:09:35.955Z,4.43
2019-01-03T05:12:12.038Z,3.70
2019-01-03T05:14:42.080Z,5.60
2019-01-03T05:17:12.140Z,3.97
2019-01-03T05:19:45.156Z,4.23
2019-01-03T05:22:18.326Z,5.50
2019-01-03T05:24:54.368Z,4.20
2019-01-03T05:27:26.824Z,6.37
2019-01-03T05:30:05.615Z,5.20
2019-01-03T05:32:44.567Z,5.43
2019-01-03T05:35:26.671Z,7.83
2019-01-03T05:38:12.757Z,6.30
2019-01-03T05:40:48.955Z,6.83
2019-01-03T05:43:21.912Z,6.07
2019-01-03T05:45:54.410Z,7.37
2019-01-03T05:48:40.424Z,7.33
2019-01-03T05:51:28.426Z,2.87
2019-01-03T05:54:01.445Z,7.47
2019-01-03T05:56:34.236Z,6.37
2019-01-03T05:59:13.207Z,7.27
2019-01-03T06:01:43.256Z,4.37
2019-01-03T06:04:22.286Z,3.60
2019-01-03T06:06:57.793Z,6.13
2019-01-03T06:09:27.847Z,5.70
2019-01-03T06:11:57.929Z,5.43
2019-01-03T06:14:45.788Z,7.73
2019-01-03T06:17:30.908Z,4.93
2019-01-03T06:20:13.096Z,5.07
2019-01-03T06:22:58.899Z,7.27
2019-01-03T06:25:37.481Z,4.47
2019-01-03T06:28:19.140Z,5.70
2019-01-03T06:30:58.128Z,5.13
2019-01-03T06:33:33.880Z,6.23
2019-01-03T06:36:12.380Z,7.30
2019-01-03T06:38:54.212Z,6.63
2019-01-03T06:41:24.276Z,6.67
2019-01-03T06:43:57.030Z,6.27
2019-01-03T06:46:27.084Z,7.90
2019-01-03T06:48:57.144Z,6.57
2019-01-03T06:51:35.988Z,5.73
2019-01-03T06:54:08.703Z,5.90
2019-01-03T06:56:54.775Z,5.40
2019-01-03T06:59:27.813Z,5.43
2019-01-03T07:02:06.760Z,3.80
2019-01-03T07:04:42.852Z,5.67
2019-01-03T07:07:29.282Z,7.57
2019-01-03T07:09:59.336Z,6.10
2019-01-03T07:12:29.384Z,4.30
2019-01-03T07:15:15.329Z,7.80
2019-01-03T07:17:54.135Z,5.20
2019-01-03T07:20:30.206Z,6.27
2019-01-03T07:23:03.205Z,5.90
2019-01-03T07:25:49.276Z,4.67
2019-01-03T07:28:28.021Z,4.50
2019-01-03T07:31:10.020Z,7.40
2019-01-03T07:33:42.784Z,5.87
2019-01-03T07:36:15.560Z,7.87
2019-01-03T07:38:48.265Z,6.20
2019-01-03T07:41:30.173Z,5.03
2019-01-03T07:44:15.989Z,6.50
2019-01-03T07:46:46.051Z,7.03
2019-01-03T07:49:16.092Z,5.57
2019-01-03T07:51:46.139Z,4.93
2019-01-03T07:54:24.975Z,4.47
2019-01-03T07:56:55.036Z,4.60
2019-01-03T07:59:28.142Z,4.77
2019-01-03T08:02:02.165Z,5.67
2019-01-03T08:04:47.029Z,5.60
2019-01-03T08:07:23.004Z,6.07
2019-01-03T08:10:01.854Z,5.23
2019-01-03T08:12:31.926Z,4.93
2019-01-03T08:15:07.640Z,6.83
2019-01-03T08:17:38.703Z,5.80
2019-01-03T08:20:13.929Z,6.77
2019-01-03T08:23:00.092Z,5.17
2019-01-03T08:25:46.336Z,6.27
2019-01-03T08:31:26.433Z,5.23
2019-01-03T08:34:14.184Z,5.07
2019-01-03T08:37:02.829Z,7.73
2019-01-03T08:39:41.683Z,7.53
2019-01-03T08:42:14.684Z,8.63
2019-01-03T08:45:00.883Z,4.20
2019-01-03T08:47:30.916Z,7.97
2019-01-03T08:50:16.809Z,7.53
2019-01-03T08:53:02.834Z,6.23
2019-01-03T08:55:49.243Z,4.43
2019-01-03T08:58:25.314Z,5.17
2019-01-03T09:01:11.636Z,5.83
2019-01-03T09:03:50.659Z,3.50
2019-01-03T09:06:23.412Z,4.77
2019-01-03T09:08:53.456Z,5.87
2019-01-03T09:11:23.532Z,5.07
2019-01-03T09:13:53.589Z,8.50
2019-01-03T09:16:29.407Z,7.33
2019-01-03T09:19:10.955Z,6.53
2019-01-03T09:21:56.976Z,6.63
2019-01-03T09:24:38.791Z,4.53
2019-01-03T09:27:17.613Z,4.90
2019-01-03T09:29:53.378Z,4.57
2019-01-03T09:32:23.435Z,5.93
2019-01-03T09:34:56.047Z,7.30
2019-01-03T09:37:28.920Z,9.50
2019-01-03T09:40:10.859Z,6.83
2019-01-03T09:42:46.668Z,3.93
2019-01-03T09:45:15.091Z,11.30
2019-01-03T09:47:43.575Z,5.10
2019-01-03T09:50:11.991Z,3.40
2019-01-03T09:52:40.405Z,5.50
2019-01-03T09:55:08.825Z,4.40
2019-01-03T09:57:37.240Z,7.70
2019-01-03T10:00:08.857Z,6.77
2019-01-03T10:02:37.339Z,7.57
2019-01-03T10:05:06.212Z,8.13
2019-01-03T10:07:34.632Z,6.03
2019-01-03T10:10:03.879Z,7.13
2019-01-03T10:12:32.405Z,4.67
2019-01-03T10:15:08.191Z,4.57
2019-01-03T10:17:36.600Z,7.10
2019-01-03T10:20:07.165Z,5.90
2019-01-03T10:22:35.600Z,4.60
2019-01-03T10:25:04.441Z,5.90
2019-01-03T10:27:32.851Z,6.00
2019-01-03T10:30:01.257Z,6.87
2019-01-03T10:32:29.671Z,3.93
2019-01-03T10:34:58.080Z,8.40
2019-01-03T10:37:26.500Z,7.10
2019-01-03T10:39:54.920Z,9.20
2019-01-03T10:42:23.319Z,4.30
2019-01-03T10:44:51.735Z,6.33
2019-01-03T10:47:20.145Z,4.77
2019-01-03T10:49:48.561Z,4.70
2019-01-03T10:52:16.982Z,4.80
2019-01-03T10:54:45.386Z,8.23
2019-01-03T10:57:13.800Z,8.47
2019-01-03T10:59:42.205Z,6.87
2019-01-03T11:02:10.624Z,6.07
2019-01-03T11:04:39.035Z,4.93
2019-01-03T11:07:07.448Z,7.20
2019-01-03T11:09:35.855Z,5.53
2019-01-03T11:12:04.272Z,6.33
2019-01-03T11:14:32.689Z,6.77
2019-01-03T11:17:01.093Z,5.83
2019-01-03T11:19:29.503Z,8.13
2019-01-03T11:21:57.920Z,3.33
2019-01-03T11:24:26.320Z,7.93
2019-01-03T11:26:54.780Z,7.70
2019-01-03T11:29:23.208Z,7.53
2019-01-03T11:31:51.637Z,5.13
2019-01-03T11:34:20.053Z,5.47
2019-01-03T11:36:48.459Z,5.80
2019-01-03T11:39:16.879Z,6.20
2019-01-03T11:41:45.449Z,6.20
2019-01-03T11:44:13.867Z,5.87
2019-01-03T11:46:42.280Z,6.37
2019-01-03T11:49:10.688Z,4.83
2019-01-03T11:51:39.104Z,7.80
2019-01-03T11:54:07.519Z,7.80
2019-01-03T11:56:35.923Z,6.23
2019-01-03T11:59:04.333Z,6.07
2019-01-03T12:01:32.745Z,4.17
2019-01-03T12:04:01.152Z,5.93
2019-01-03T12:06:29.571Z,8.37
2019-01-03T12:08:58.012Z,8.17
2019-01-03T12:11:26.478Z,6.67
2019-01-03T12:13:54.880Z,4.47
2019-01-03T12:16:23.297Z,5.33
2019-01-03T12:18:51.736Z,8.03
2019-01-03T12:21:20.143Z,7.20
2019-01-03T12:23:48.557Z,4.90
2019-01-03T12:26:16.963Z,6.93
2019-01-03T12:28:45.375Z,8.47
2019-01-03T12:31:13.851Z,5.23
2019-01-03T12:33:42.262Z,5.50
2019-01-03T12:36:10.667Z,5.60
2019-01-03T12:38:39.072Z,5.63
2019-01-03T12:41:07.490Z,5.10
2019-01-03T12:43:35.905Z,6.17
2019-01-03T12:46:04.386Z,6.20
2019-01-03T12:48:32.803Z,5.80
2019-01-03T12:51:01.203Z,6.93
2019-01-03T12:53:29.617Z,4.80
2019-01-03T12:55:58.095Z,4.43
2019-01-03T12:58:26.511Z,6.50
2019-01-03T13:00:54.991Z,4.50
2019-01-03T13:03:23.404Z,9.60
2019-01-03T13:05:51.856Z,4.93
2019-01-03T13:08:20.264Z,5.83
2019-01-03T13:10:48.675Z,6.83
2019-01-03T13:13:17.080Z,7.13
2019-01-03T13:15:45.496Z,6.00
2019-01-03T13:18:13.912Z,7.53
2019-01-03T13:20:42.317Z,4.33
2019-01-03T13:23:10.728Z,5.93
2019-01-03T13:25:39.136Z,5.90
2019-01-03T13:28:07.552Z,4.93
2019-01-03T13:30:35.952Z,4.53
2019-01-03T13:33:04.372Z,5.67
2019-01-03T13:35:32.793Z,8.17
2019-01-03T13:38:01.197Z,6.33
2019-01-03T13:40:29.605Z,5.10
2019-01-03T13:42:58.013Z,4.50
2019-01-03T13:45:26.425Z,6.30
2019-01-03T13:47:54.820Z,5.03
2019-01-03T13:50:23.244Z,4.37
2019-01-03T13:52:51.679Z,6.63
2019-01-03T13:55:20.104Z,4.50
2019-01-03T13:57:48.521Z,5.60
2019-01-03T14:00:16.923Z,7.53
2019-01-03T14:02:46.195Z,6.13
2019-01-03T14:05:14.596Z,6.17
2019-01-03T14:07:43.015Z,5.17
2019-01-03T14:10:11.424Z,7.40
2019-01-03T14:12:39.828Z,4.33
2019-01-03T14:15:08.307Z,5.07
2019-01-03T14:17:36.708Z,6.73
2019-01-03T14:20:08.663Z,5.87
2019-01-03T14:22:37.092Z,6.07
2019-01-03T14:25:06.048Z,7.20
2019-01-03T14:27:34.464Z,6.33
2019-01-03T14:30:02.944Z,4.03
2019-01-03T14:32:31.359Z,5.43
2019-01-03T14:34:59.761Z,4.87
2019-01-03T14:37:28.172Z,6.93
2019-01-03T14:39:56.588Z,6.87
2019-01-03T14:42:24.999Z,4.43
2019-01-03T14:44:53.411Z,7.17
2019-01-03T14:47:21.841Z,5.17
2019-01-03T14:49:50.247Z,5.30
2019-01-03T14:52:18.656Z,8.37
2019-01-03T14:54:47.064Z,4.47
2019-01-03T14:57:15.464Z,7.47
2019-01-03T14:59:43.878Z,7.17
2019-01-03T15:02:12.288Z,6.10
2019-01-03T15:04:40.696Z,5.67
2019-01-03T15:07:09.110Z,7.43
2019-01-03T15:09:37.511Z,7.03
2019-01-03T15:12:05.996Z,5.93
2019-01-03T15:14:34.392Z,5.00
2019-01-03T15:17:02.796Z,5.53
2019-01-03T15:19:31.209Z,7.30
2019-01-03T15:21:59.633Z,5.00
2019-01-03T15:24:28.028Z,5.63
2019-01-03T15:26:56.435Z,7.83
2019-01-03T15:29:24.853Z,4.73
2019-01-03T15:31:53.257Z,6.40
2019-01-03T15:34:21.668Z,9.90
2019-01-03T15:36:50.081Z,5.67
2019-01-03T15:39:18.486Z,6.47
2019-01-03T15:41:46.890Z,6.60
2019-01-03T15:44:15.312Z,6.97
2019-01-03T15:46:43.708Z,8.30
2019-01-03T15:49:12.134Z,7.07
2019-01-03T15:51:40.533Z,7.93
2019-01-03T15:54:08.953Z,7.50
2019-01-03T15:56:37.365Z,6.23
2019-01-03T15:59:05.784Z,6.77
2019-01-03T16:01:34.194Z,7.67
2019-01-03T16:04:02.600Z,5.90
2019-01-03T16:06:31.041Z,9.70
2019-01-03T16:08:59.439Z,5.60
2019-01-03T16:11:27.845Z,6.30
2019-01-03T16:13:56.273Z,6.87
2019-01-03T16:16:24.672Z,8.33
2019-01-03T16:18:53.087Z,7.37
2019-01-03T16:21:21.487Z,7.77
2019-01-03T16:23:49.918Z,5.10
2019-01-03T16:26:18.332Z,9.13
2019-01-03T16:28:46.739Z,6.37
2019-01-03T16:31:39.032Z,5.33
2019-01-03T16:34:07.480Z,7.13
2019-01-03T16:36:36.008Z,6.00
2019-01-03T16:39:08.737Z,6.40
2019-01-03T16:41:37.241Z,7.63
2019-01-03T16:44:09.809Z,7.40
2019-01-03T16:46:41.249Z,6.73
2019-01-03T16:49:09.746Z,7.73
2019-01-03T16:51:38.324Z,5.07
2019-01-03T16:54:06.797Z,7.90
2019-01-03T16:56:35.217Z,9.43
2019-01-03T16:59:05.445Z,4.77
2019-01-03T17:01:33.916Z,6.30
2019-01-03T17:04:02.393Z,7.37
2019-01-03T17:06:30.931Z,11.03
2019-01-03T17:08:59.347Z,11.27
2019-01-03T17:11:27.750Z,8.30
2019-01-03T17:13:56.201Z,8.43
2019-01-03T17:16:24.608Z,8.57
2019-01-03T17:18:53.036Z,5.93
2019-01-03T17:21:21.454Z,8.20
2019-01-03T17:23:49.859Z,8.50
2019-01-03T17:26:18.273Z,4.97
2019-01-03T17:28:53.850Z,7.63
2019-01-03T17:31:34.242Z,8.07
2019-01-03T17:34:02.752Z,5.07
2019-01-03T17:36:31.200Z,5.77
2019-01-03T17:38:59.616Z,9.03
2019-01-03T17:41:28.068Z,7.87
2019-01-03T17:44:09.612Z,7.33
2019-01-03T17:46:38.020Z,9.10
2019-01-03T17:49:06.434Z,5.73
2019-01-03T17:51:34.841Z,7.33
2019-01-03T17:54:03.259Z,5.53
2019-01-03T17:56:31.667Z,6.63
2019-01-03T17:59:00.080Z,9.23
2019-01-03T18:01:28.495Z,9.83
2019-01-03T18:03:56.908Z,7.53
2019-01-03T18:06:28.344Z,6.13
2019-01-03T18:08:56.826Z,6.93
2019-01-03T18:11:25.284Z,7.90
2019-01-03T18:13:53.747Z,7.77
2019-01-03T18:16:22.167Z,6.60
2019-01-03T18:18:50.576Z,6.03
2019-01-03T18:21:18.999Z,7.43
2019-01-03T18:23:47.416Z,8.87
2019-01-03T18:26:15.873Z,7.20
2019-01-03T18:28:44.285Z,11.97
2019-01-03T18:31:12.688Z,8.67
2019-01-03T18:33:41.103Z,7.80
2019-01-03T18:36:14.349Z,10.07
2019-01-03T18:38:42.820Z,8.27
2019-01-03T18:41:11.288Z,8.70
2019-01-03T18:43:39.802Z,9.10
2019-01-03T18:46:08.289Z,7.87
2019-01-03T18:48:38.425Z,10.60
2019-01-03T18:51:06.995Z,9.10
2019-01-03T18:53:35.493Z,10.07
2019-01-03T18:56:03.965Z,9.77
2019-01-03T18:58:36.687Z,8.30
2019-01-03T19:01:04.176Z,7.63
2019-01-03T19:03:32.584Z,7.23
2019-01-03T19:06:01.001Z,8.13
2019-01-03T19:08:29.407Z,6.57
2019-01-03T19:10:57.828Z,8.93
2019-01-03T19:13:26.260Z,8.27
2019-01-03T19:15:54.692Z,8.87
2019-01-03T19:18:23.099Z,7.43
2019-01-03T19:20:51.511Z,9.37
2019-01-03T19:23:19.928Z,9.13
2019-01-03T19:25:48.332Z,8.30
2019-01-03T19:28:16.747Z,7.47
2019-01-03T19:30:45.164Z,7.37
2019-01-03T19:33:13.568Z,8.27
2019-01-03T19:35:41.983Z,11.97
2019-01-03T19:38:10.391Z,9.07
2019-01-03T19:40:38.893Z,9.60
2019-01-03T19:43:07.311Z,8.20
2019-01-03T19:45:35.946Z,10.80
2019-01-03T19:48:04.365Z,9.00
2019-01-03T19:50:32.772Z,10.13
2019-01-03T19:53:01.202Z,10.57
2019-01-03T19:55:29.611Z,9.20
2019-01-03T19:57:58.012Z,9.47
2019-01-03T20:00:26.498Z,10.07
2019-01-03T20:02:54.936Z,9.83
2019-01-03T20:05:23.366Z,7.23
2019-01-03T20:07:51.773Z,7.93
2019-01-03T20:10:20.243Z,8.43
2019-01-03T20:12:48.656Z,6.87
2019-01-03T20:15:17.137Z,5.43
2019-01-03T20:17:45.543Z,11.53
2019-01-03T20:20:13.964Z,9.17
2019-01-03T20:22:42.374Z,6.67
2019-01-03T20:25:11.168Z,6.93
2019-01-03T20:28:04.639Z,9.33
2019-01-03T20:30:43.555Z,7.73
2019-01-03T20:33:12.082Z,8.10
2019-01-03T20:35:48.562Z,9.57
2019-01-03T20:38:17.164Z,7.93
2019-01-03T20:40:45.734Z,8.03
2019-01-03T20:46:09.545Z,7.67
2019-01-03T20:48:37.971Z,9.80
2019-01-03T20:51:06.457Z,9.40
2019-01-03T20:53:34.882Z,9.53
2019-01-03T20:56:03.279Z,9.83
2019-01-03T20:58:33.628Z,8.37
2019-01-03T21:01:02.028Z,10.30
2019-01-03T21:03:30.458Z,10.20
2019-01-03T21:05:58.884Z,11.77
2019-01-03T21:08:27.292Z,8.30
2019-01-03T21:10:55.700Z,12.27
2019-01-03T21:13:27.169Z,8.17
2019-01-03T21:15:55.579Z,8.93
2019-01-03T21:18:23.992Z,10.13
2019-01-03T21:20:52.475Z,9.67
2019-01-03T21:23:20.887Z,8.40
2019-01-03T21:25:49.313Z,10.90
2019-01-03T21:28:17.716Z,8.93
2019-01-03T21:30:46.147Z,10.00
2019-01-03T21:33:14.548Z,9.43
2019-01-03T21:35:42.972Z,11.63
2019-01-03T21:38:11.390Z,13.60
2019-01-03T21:40:39.860Z,12.93
2019-01-03T21:43:08.389Z,13.33
2019-01-03T21:45:36.859Z,12.90
2019-01-03T21:48:05.263Z,14.00
2019-01-03T21:50:33.672Z,12.40
2019-01-03T21:53:02.172Z,13.07
2019-01-03T21:55:30.593Z,13.40
2019-01-03T21:58:01.690Z,12.00
2019-01-03T22:00:30.112Z,12.17
2019-01-03T22:02:58.535Z,11.87
2019-01-03T22:05:26.946Z,12.03
2019-01-03T22:07:55.361Z,13.50
2019-01-03T22:10:23.776Z,12.73
2019-01-03T22:12:52.268Z,14.43
2019-01-03T22:15:20.688Z,12.80
2019-01-03T22:17:49.096Z,13.40
2019-01-03T22:20:17.517Z,16.43
2019-01-03T22:22:45.920Z,13.27
2019-01-03T22:25:14.343Z,12.80
2019-01-03T22:27:42.749Z,12.00
2019-01-03T22:30:11.429Z,12.80
2019-01-03T22:32:39.833Z,12.37
2019-01-03T22:35:08.325Z,13.97
2019-01-03T22:37:36.739Z,14.87
2019-01-03T22:40:06.896Z,15.27
2019-01-03T22:42:35.300Z,14.10
2019-01-03T22:45:06.424Z,16.87
2019-01-03T22:47:34.837Z,12.90
2019-01-03T22:50:04.194Z,14.90
2019-01-03T22:52:32.596Z,15.17
2019-01-03T22:55:01.033Z,13.77
2019-01-03T22:57:29.431Z,12.97
2019-01-03T22:59:58.803Z,15.67
2019-01-03T23:02:27.220Z,13.60
2019-01-03T23:04:55.636Z,14.50
2019-01-03T23:07:24.062Z,15.97
2019-01-03T23:09:52.472Z,13.77
2019-01-03T23:12:20.892Z,14.70
2019-01-03T23:14:49.435Z,15.10
2019-01-03T23:17:17.896Z,15.27
2019-01-03T23:19:46.312Z,13.27
2019-01-03T23:22:38.394Z,15.73
2019-01-03T23:25:06.795Z,14.47
2019-01-03T23:27:35.220Z,15.87
2019-01-03T23:30:05.414Z,14.90
2019-01-03T23:32:33.845Z,14.90
2019-01-03T23:35:02.269Z,15.23
2019-01-03T23:37:30.690Z,15.63
2019-01-03T23:39:59.118Z,16.17
2019-01-03T23:42:27.548Z,15.70
2019-01-03T23:45:13.776Z,15.57
2019-01-03T23:47:42.201Z,15.20
2019-01-03T23:50:13.548Z,16.27
2019-01-03T23:52:41.977Z,17.77
2019-01-03T23:55:10.465Z,14.93
2019-01-03T23:57:38.951Z,15.70
